PWSweather.com
Personal Weather Stations
Station Observations
VPOKROGLO
Kal Nad Kanalom, PrimorskaSI

Kal Nad KanalomPrimorskaSI

Lat: 46.072, Lon: 13.734

Elevation: 2526

Station Type: WS-2355

https://okroglovreme.com

Latest ConditionsUpdated 4:00:00 PM GMT+01:01 Wednesday, Nov 21, 2018
Currently Today's Max Today's Min Today's Average
Temperature 39.0°F3.9°C 40.8°F4.9°C 33.4°F0.8°C 36.9°F2.7°C
Dew Point 35.2°F1.8°C 36.9°F2.7°C 29.5°F-1.4°C 32.9°F0.5°C
Winds 3.2 mph WSW5.1 kmh WSW 8.7 mph -14.0 kmh - - 5.0 mph 8.0 kmh
Wind Gusts 9.8 mph15.8 kmh 21.5 mph34.6 kmh - -
Humidity 86% 87% 84% 85%
Pressure 29.96 in1014.6 mb 29.96 in1014.6 mb 29.82 in1009.8 mb -
Precipitation - 0.02 in0.5 mm - -
Hour Temp Dew Point Humidity Winds Wind Gusts Pressure Precip Precip Rate Daily Precip Total
04:00 PM 39.0°F3.9°C 35.2°F1.8°C 86% 3.2 mph WSW5.1 kmh WSW 9.8 mph15.8 kmh 29.96 in1014.6 mb 0.00 in0.0 mm 0.00 in0.0 mm 0.02 in0.5 mm
03:45 PM 39.2°F4.0°C 35.3°F1.8°C 86% 3.2 mph WNW5.1 kmh WNW 9.2 mph14.8 kmh 29.96 in1014.6 mb 0.00 in0.0 mm 0.00 in0.0 mm 0.02 in0.5 mm
03:30 PM 38.5°F3.6°C 34.6°F1.4°C 86% 1.2 mph NW1.9 kmh NW 5.4 mph8.7 kmh 29.96 in1014.6 mb 0.00 in0.0 mm 0.00 in0.0 mm 0.02 in0.5 mm
03:15 PM 38.3°F3.5°C 34.4°F1.3°C 86% 1.0 mph NNW1.6 kmh NNW 3.6 mph5.8 kmh 29.96 in1014.6 mb 0.00 in0.0 mm 0.00 in0.0 mm 0.02 in0.5 mm
03:00 PM 39.0°F3.9°C 35.2°F1.8°C 86% 1.9 mph WNW3.1 kmh WNW 8.9 mph14.3 kmh 29.96 in1014.6 mb 0.00 in0.0 mm 0.00 in0.0 mm 0.02 in0.5 mm
02:45 PM 39.4°F4.1°C 35.5°F1.9°C 86% 1.2 mph SW1.9 kmh SW 5.1 mph8.2 kmh 29.96 in1014.6 mb 0.00 in0.0 mm 0.00 in0.0 mm 0.02 in0.5 mm
02:30 PM 39.0°F3.9°C 34.9°F1.6°C 85% 1.0 mph SSW1.6 kmh SSW 4.3 mph6.9 kmh 29.95 in1014.2 mb 0.00 in0.0 mm 0.00 in0.0 mm 0.02 in0.5 mm
02:15 PM 40.8°F4.9°C 36.9°F2.7°C 86% 2.9 mph NW4.7 kmh NW 8.5 mph13.7 kmh 29.95 in1014.2 mb 0.00 in0.0 mm 0.00 in0.0 mm 0.02 in0.5 mm
02:00 PM 39.9°F4.4°C 36.0°F2.2°C 86% 1.5 mph W2.4 kmh W 6.9 mph11.1 kmh 29.94 in1013.9 mb 0.00 in0.0 mm 0.00 in0.0 mm 0.02 in0.5 mm
01:45 PM 39.2°F4.0°C 35.3°F1.8°C 86% 1.4 mph NW2.3 kmh NW 7.4 mph11.9 kmh 29.94 in1013.9 mb 0.00 in0.0 mm 0.00 in0.0 mm 0.02 in0.5 mm
01:30 PM 39.7°F4.3°C 35.6°F2.0°C 85% 1.6 mph W2.6 kmh W 5.1 mph8.2 kmh 29.94 in1013.9 mb 0.00 in0.0 mm 0.00 in0.0 mm 0.02 in0.5 mm
01:15 PM 39.6°F4.2°C 35.4°F1.9°C 85% 4.0 mph NW6.4 kmh NW 11.0 mph17.7 kmh 29.94 in1013.9 mb 0.02 in0.5 mm 0.00 in0.0 mm 0.02 in0.5 mm
01:00 PM 39.7°F4.3°C 35.6°F2.0°C 85% 4.7 mph SW7.6 kmh SW 10.5 mph16.9 kmh 29.95 in1014.2 mb 0.02 in0.5 mm 0.00 in0.0 mm 0.02 in0.5 mm
12:45 PM 39.4°F4.1°C 35.2°F1.8°C 85% 4.5 mph W7.2 kmh W 14.1 mph22.7 kmh 29.94 in1013.9 mb 0.02 in0.5 mm 0.00 in0.0 mm 0.02 in0.5 mm
12:30 PM 38.8°F3.8°C 35.0°F1.7°C 86% 4.4 mph N7.1 kmh N 14.1 mph22.7 kmh 29.94 in1013.9 mb 0.02 in0.5 mm 0.08 in2.0 mm 0.02 in0.5 mm
12:15 PM 38.5°F3.6°C 34.6°F1.4°C 86% 4.3 mph NNW6.9 kmh NNW 12.3 mph19.8 kmh 29.93 in1013.5 mb 0.00 in0.0 mm 0.00 in0.0 mm 0.02 in0.5 mm
12:00 PM 37.9°F3.3°C 34.1°F1.2°C 86% 4.7 mph NW7.6 kmh NW 13.2 mph21.2 kmh 29.93 in1013.5 mb 0.00 in0.0 mm 0.00 in0.0 mm 0.02 in0.5 mm
11:45 AM 37.6°F3.1°C 33.4°F0.8°C 85% 5.2 mph N8.4 kmh N 15.2 mph24.5 kmh 29.94 in1013.9 mb 0.00 in0.0 mm 0.00 in0.0 mm 0.02 in0.5 mm
11:30 AM 37.6°F3.1°C 33.4°F0.8°C 85% 4.7 mph NNW7.6 kmh NNW 8.7 mph14.0 kmh 29.93 in1013.5 mb 0.00 in0.0 mm 0.00 in0.0 mm 0.02 in0.5 mm
11:15 AM 37.4°F3.0°C 33.3°F0.7°C 85% 4.8 mph NNW7.7 kmh NNW 12.3 mph19.8 kmh 29.94 in1013.9 mb 0.00 in0.0 mm 0.00 in0.0 mm 0.02 in0.5 mm
11:00 AM 37.9°F3.3°C 33.5°F0.8°C 84% 4.7 mph NNW7.6 kmh NNW 12.1 mph19.5 kmh 29.94 in1013.9 mb 0.00 in0.0 mm 0.00 in0.0 mm 0.02 in0.5 mm
10:45 AM 38.3°F3.5°C 33.9°F1.1°C 84% 5.0 mph N8.0 kmh N 13.6 mph21.9 kmh 29.94 in1013.9 mb 0.00 in0.0 mm 0.00 in0.0 mm 0.02 in0.5 mm
10:30 AM 38.8°F3.8°C 34.4°F1.3°C 84% 4.5 mph NW7.2 kmh NW 14.5 mph23.3 kmh 29.93 in1013.5 mb 0.00 in0.0 mm 0.00 in0.0 mm 0.02 in0.5 mm
10:15 AM 38.8°F3.8°C 34.7°F1.5°C 85% 4.5 mph W7.2 kmh W 12.3 mph19.8 kmh 29.94 in1013.9 mb 0.00 in0.0 mm 0.00 in0.0 mm 0.02 in0.5 mm
10:00 AM 37.8°F3.2°C 33.6°F0.9°C 85% 4.1 mph NW6.6 kmh NW 9.2 mph14.8 kmh 29.93 in1013.5 mb 0.00 in0.0 mm 0.00 in0.0 mm 0.02 in0.5 mm
09:45 AM 36.9°F2.7°C 32.4°F0.2°C 84% 3.2 mph W5.1 kmh W 9.2 mph14.8 kmh 29.94 in1013.9 mb 0.00 in0.0 mm 0.00 in0.0 mm 0.02 in0.5 mm
09:30 AM 36.9°F2.7°C 32.4°F0.2°C 84% 2.6 mph NW4.2 kmh NW 8.7 mph14.0 kmh 29.93 in1013.5 mb 0.00 in0.0 mm 0.00 in0.0 mm 0.02 in0.5 mm
09:15 AM 38.5°F3.6°C 34.1°F1.2°C 84% 5.4 mph SW8.7 kmh SW 13.9 mph22.4 kmh 29.93 in1013.5 mb 0.00 in0.0 mm 0.00 in0.0 mm 0.02 in0.5 mm
09:00 AM 38.5°F3.6°C 34.1°F1.2°C 84% 5.0 mph WSW8.0 kmh WSW 11.2 mph18.0 kmh 29.93 in1013.5 mb 0.00 in0.0 mm 0.00 in0.0 mm 0.02 in0.5 mm
08:45 AM 38.3°F3.5°C 33.9°F1.1°C 84% 7.0 mph NNW11.3 kmh NNW 21.3 mph34.3 kmh 29.93 in1013.5 mb 0.00 in0.0 mm 0.00 in0.0 mm 0.02 in0.5 mm
08:30 AM 37.9°F3.3°C 33.5°F0.8°C 84% 5.5 mph WSW8.9 kmh WSW 16.8 mph27.0 kmh 29.92 in1013.2 mb 0.00 in0.0 mm 0.00 in0.0 mm 0.02 in0.5 mm
08:15 AM 37.8°F3.2°C 33.3°F0.7°C 84% 6.4 mph NNW10.3 kmh NNW 15.9 mph25.6 kmh 29.91 in1012.9 mb 0.00 in0.0 mm 0.00 in0.0 mm 0.02 in0.5 mm
08:00 AM 37.2°F2.9°C 33.1°F0.6°C 85% 5.3 mph NW8.5 kmh NW 17.7 mph28.5 kmh 29.91 in1012.9 mb 0.00 in0.0 mm 0.00 in0.0 mm 0.02 in0.5 mm
07:45 AM 36.9°F2.7°C 32.7°F0.4°C 85% 6.4 mph N10.3 kmh N 16.6 mph26.7 kmh 29.90 in1012.5 mb 0.00 in0.0 mm 0.00 in0.0 mm 0.02 in0.5 mm
07:30 AM 36.7°F2.6°C 32.5°F0.3°C 85% 6.3 mph NNW10.1 kmh NNW 15.2 mph24.5 kmh 29.90 in1012.5 mb 0.00 in0.0 mm 0.00 in0.0 mm 0.02 in0.5 mm
07:15 AM 36.3°F2.4°C 32.2°F0.1°C 85% 6.0 mph NNW9.7 kmh NNW 20.4 mph32.8 kmh 29.89 in1012.2 mb 0.00 in0.0 mm 0.00 in0.0 mm 0.02 in0.5 mm
07:00 AM 36.1°F2.3°C 32.0°F0.0°C 85% 6.7 mph NNW10.8 kmh NNW 20.1 mph32.3 kmh 29.88 in1011.9 mb 0.00 in0.0 mm 0.00 in0.0 mm 0.02 in0.5 mm
06:45 AM 36.3°F2.4°C 32.2°F0.1°C 85% 6.4 mph WNW10.3 kmh WNW 13.0 mph20.9 kmh 29.88 in1011.9 mb 0.00 in0.0 mm 0.00 in0.0 mm 0.02 in0.5 mm
06:30 AM 36.0°F2.2°C 31.8°F-0.1°C 85% 6.4 mph NW10.3 kmh NW 14.8 mph23.8 kmh 29.88 in1011.9 mb 0.00 in0.0 mm 0.00 in0.0 mm 0.02 in0.5 mm
06:15 AM 36.0°F2.2°C 31.8°F-0.1°C 85% 7.0 mph NW11.3 kmh NW 15.7 mph25.3 kmh 29.87 in1011.5 mb 0.00 in0.0 mm 0.00 in0.0 mm 0.02 in0.5 mm
06:00 AM 36.0°F2.2°C 31.8°F-0.1°C 85% 7.0 mph N11.3 kmh N 17.2 mph27.7 kmh 29.86 in1011.2 mb 0.00 in0.0 mm 0.00 in0.0 mm 0.02 in0.5 mm
05:45 AM 35.8°F2.1°C 31.6°F-0.2°C 85% 7.3 mph E11.7 kmh E 19.0 mph30.6 kmh 29.87 in1011.5 mb 0.00 in0.0 mm 0.00 in0.0 mm 0.02 in0.5 mm
05:30 AM 35.2°F1.8°C 31.1°F-0.5°C 85% 8.7 mph ENE14.0 kmh ENE 19.2 mph30.9 kmh 29.87 in1011.5 mb 0.00 in0.0 mm 0.00 in0.0 mm 0.02 in0.5 mm
05:15 AM 34.9°F1.6°C 30.7°F-0.7°C 85% 7.6 mph NNE12.2 kmh NNE 17.7 mph28.5 kmh 29.85 in1010.8 mb 0.00 in0.0 mm 0.00 in0.0 mm 0.02 in0.5 mm
05:00 AM 34.9°F1.6°C 30.7°F-0.7°C 85% 6.4 mph NW10.3 kmh NW 18.1 mph29.1 kmh 29.85 in1010.8 mb 0.00 in0.0 mm 0.00 in0.0 mm 0.02 in0.5 mm
04:45 AM 35.2°F1.8°C 31.4°F-0.3°C 86% 6.8 mph NW10.9 kmh NW 20.4 mph32.8 kmh 29.84 in1010.5 mb 0.00 in0.0 mm 0.00 in0.0 mm 0.02 in0.5 mm
04:30 AM 35.8°F2.1°C 31.6°F-0.2°C 85% 6.9 mph NW11.1 kmh NW 15.9 mph25.6 kmh 29.84 in1010.5 mb 0.00 in0.0 mm 0.00 in0.0 mm 0.02 in0.5 mm
04:15 AM 36.3°F2.4°C 32.2°F0.1°C 85% 6.9 mph NW11.1 kmh NW 13.2 mph21.2 kmh 29.84 in1010.5 mb 0.00 in0.0 mm 0.00 in0.0 mm 0.02 in0.5 mm
04:00 AM 36.7°F2.6°C 32.5°F0.3°C 85% 5.8 mph NW9.3 kmh NW 13.0 mph20.9 kmh 29.84 in1010.5 mb 0.00 in0.0 mm 0.00 in0.0 mm 0.02 in0.5 mm
03:45 AM 36.3°F2.4°C 32.2°F0.1°C 85% 6.0 mph N9.7 kmh N 12.1 mph19.5 kmh 29.83 in1010.2 mb 0.00 in0.0 mm 0.00 in0.0 mm 0.02 in0.5 mm
03:30 AM 36.3°F2.4°C 32.5°F0.3°C 86% 6.1 mph NW9.8 kmh NW 18.3 mph29.5 kmh 29.83 in1010.2 mb 0.00 in0.0 mm 0.00 in0.0 mm 0.02 in0.5 mm
03:15 AM 36.1°F2.3°C 32.3°F0.2°C 86% 5.9 mph WNW9.5 kmh WNW 15.0 mph24.1 kmh 29.83 in1010.2 mb 0.00 in0.0 mm 0.00 in0.0 mm 0.02 in0.5 mm
03:00 AM 35.4°F1.9°C 31.9°F-0.1°C 87% 5.6 mph WSW9.0 kmh WSW 12.8 mph20.6 kmh 29.83 in1010.2 mb 0.00 in0.0 mm 0.00 in0.0 mm 0.02 in0.5 mm
02:45 AM 34.3°F1.3°C 30.5°F-0.8°C 86% 3.7 mph WSW6.0 kmh WSW 8.7 mph14.0 kmh 29.82 in1009.8 mb 0.00 in0.0 mm 0.00 in0.0 mm 0.02 in0.5 mm
02:30 AM 34.9°F1.6°C 30.7°F-0.7°C 85% 5.4 mph SSW8.7 kmh SSW 12.8 mph20.6 kmh 29.83 in1010.2 mb 0.00 in0.0 mm 0.00 in0.0 mm 0.02 in0.5 mm
02:15 AM 35.2°F1.8°C 31.4°F-0.3°C 86% 4.8 mph WSW7.7 kmh WSW 12.1 mph19.5 kmh 29.82 in1009.8 mb 0.00 in0.0 mm 0.00 in0.0 mm 0.02 in0.5 mm
02:00 AM 34.3°F1.3°C 30.5°F-0.8°C 86% 5.1 mph NW8.2 kmh NW 15.2 mph24.5 kmh 29.83 in1010.2 mb 0.00 in0.0 mm 0.00 in0.0 mm 0.02 in0.5 mm
01:45 AM 33.6°F0.9°C 29.5°F-1.4°C 85% 2.4 mph WNW3.9 kmh WNW 11.0 mph17.7 kmh 29.83 in1010.2 mb 0.00 in0.0 mm 0.00 in0.0 mm 0.02 in0.5 mm
01:30 AM 34.9°F1.6°C 30.7°F-0.7°C 85% 6.8 mph W10.9 kmh W 18.3 mph29.5 kmh 29.83 in1010.2 mb 0.00 in0.0 mm 0.00 in0.0 mm 0.02 in0.5 mm
01:15 AM 34.3°F1.3°C 30.2°F-1.0°C 85% 6.5 mph WSW10.5 kmh WSW 16.8 mph27.0 kmh 29.83 in1010.2 mb 0.00 in0.0 mm 0.00 in0.0 mm 0.02 in0.5 mm
01:00 AM 34.2°F1.2°C 30.0°F-1.1°C 85% 6.4 mph WNW10.3 kmh WNW 17.9 mph28.8 kmh 29.83 in1010.2 mb 0.00 in0.0 mm 0.00 in0.0 mm 0.02 in0.5 mm
12:45 AM 33.6°F0.9°C 29.5°F-1.4°C 85% 6.9 mph W11.1 kmh W 14.5 mph23.3 kmh 29.83 in1010.2 mb 0.02 in0.5 mm 0.00 in0.0 mm 0.02 in0.5 mm
12:30 AM 33.6°F0.9°C 29.5°F-1.4°C 85% 6.6 mph NW10.6 kmh NW 18.3 mph29.5 kmh 29.84 in1010.5 mb 0.02 in0.5 mm 0.00 in0.0 mm 0.02 in0.5 mm
12:15 AM 33.4°F0.8°C 29.6°F-1.3°C 86% 7.4 mph NE11.9 kmh NE 21.5 mph34.6 kmh 29.84 in1010.5 mb 0.02 in0.5 mm 0.00 in0.0 mm 0.02 in0.5 mm
12:00 AM 33.6°F0.9°C 29.8°F-1.2°C 86% 6.6 mph NW10.6 kmh NW 19.7 mph31.7 kmh 29.84 in1010.5 mb 0.02 in0.5 mm 0.00 in0.0 mm 0.02 in0.5 mm